createdAt,value
2023-01-28T00:00:55.463Z,2.15
2023-01-28T00:03:22.725Z,2.10
2023-01-28T00:05:49.757Z,2.13
2023-01-28T00:08:16.783Z,2.10
2023-01-28T00:10:43.686Z,2.05
2023-01-28T00:13:16.435Z,1.90
2023-01-28T00:15:43.381Z,1.90
2023-01-28T00:18:10.409Z,2.40
2023-01-28T00:20:37.416Z,2.50
2023-01-28T00:23:04.394Z,2.00
2023-01-28T00:25:31.318Z,1.85
2023-01-28T00:27:58.376Z,2.17
2023-01-28T00:30:25.349Z,2.13
2023-01-28T00:32:54.854Z,2.13
2023-01-28T00:35:21.869Z,2.58
2023-01-28T00:37:48.860Z,2.47
2023-01-28T00:40:16.080Z,2.03
2023-01-28T00:42:43.045Z,2.65
2023-01-28T00:45:10.424Z,1.73
2023-01-28T00:47:37.845Z,2.40
2023-01-28T00:50:05.552Z,2.63
2023-01-28T00:52:32.598Z,1.65
2023-01-28T00:54:59.654Z,2.50
2023-01-28T00:57:26.691Z,2.63
2023-01-28T00:59:53.614Z,1.80
2023-01-28T01:02:22.284Z,2.67
2023-01-28T01:05:01.480Z,2.80
2023-01-28T01:07:41.653Z,3.30
2023-01-28T01:10:15.916Z,2.88
2023-01-28T01:12:43.557Z,3.22
2023-01-28T01:15:11.351Z,3.63
2023-01-28T01:17:40.323Z,2.80
2023-01-28T01:20:13.085Z,3.40
2023-01-28T01:22:40.075Z,3.72
2023-01-28T01:25:07.477Z,3.08
2023-01-28T01:27:34.715Z,4.13
2023-01-28T01:30:01.803Z,4.43
2023-01-28T01:32:32.735Z,3.33
2023-01-28T01:34:59.770Z,3.53
2023-01-28T01:37:27.135Z,4.05
2023-01-28T01:39:54.248Z,4.28
2023-01-28T01:42:21.493Z,3.83
2023-01-28T01:44:54.191Z,3.58
2023-01-28T01:47:43.587Z,4.32
2023-01-28T01:50:45.812Z,4.18
2023-01-28T01:53:18.991Z,2.95
2023-01-28T01:55:50.204Z,3.20
2023-01-28T01:58:20.050Z,3.67
2023-01-28T02:00:47.720Z,4.03
2023-01-28T02:03:17.483Z,2.90
2023-01-28T02:05:44.498Z,3.33
2023-01-28T02:08:23.548Z,3.97
2023-01-28T02:10:59.327Z,3.63
2023-01-28T02:13:31.140Z,5.03
2023-01-28T02:16:03.053Z,3.40
2023-01-28T02:18:30.136Z,3.85
2023-01-28T02:21:15.787Z,3.90
2023-01-28T02:24:13.224Z,4.55
2023-01-28T02:27:12.317Z,4.22
2023-01-28T02:29:56.264Z,3.70
2023-01-28T02:32:36.938Z,3.78
2023-01-28T02:35:25.163Z,3.05
2023-01-28T02:38:09.685Z,3.72
2023-01-28T02:41:01.103Z,4.03
2023-01-28T02:43:37.860Z,3.72
2023-01-28T02:46:36.682Z,3.42
2023-01-28T02:49:08.338Z,3.45
2023-01-28T02:52:07.466Z,3.33
2023-01-28T02:54:54.556Z,4.45
2023-01-28T02:57:57.163Z,3.20
2023-01-28T03:01:01.898Z,3.45
2023-01-28T03:03:40.714Z,2.85
2023-01-28T03:06:12.888Z,3.53
2023-01-28T03:09:12.235Z,3.33
2023-01-28T03:12:06.180Z,3.92
2023-01-28T03:14:53.734Z,3.83
2023-01-28T03:18:11.497Z,3.25
2023-01-28T03:21:02.968Z,3.50
2023-01-28T03:23:57.877Z,4.93
2023-01-28T03:26:46.349Z,4.03
2023-01-28T03:29:34.044Z,4.00
2023-01-28T03:32:23.801Z,4.13
2023-01-28T03:35:10.662Z,5.25
2023-01-28T03:37:38.266Z,5.63
2023-01-28T03:40:14.211Z,4.00
2023-01-28T03:42:43.126Z,5.15
2023-01-28T03:45:22.809Z,5.45
2023-01-28T03:47:49.926Z,2.65
2023-01-28T03:50:17.115Z,5.53
2023-01-28T03:53:14.976Z,4.55
2023-01-28T03:55:50.234Z,4.67
2023-01-28T03:58:18.401Z,4.50
2023-01-28T04:00:46.324Z,4.70
2023-01-28T04:03:17.044Z,4.68
2023-01-28T04:06:06.412Z,3.92
2023-01-28T04:08:56.480Z,4.30
2023-01-28T04:12:02.264Z,5.75
2023-01-28T04:14:35.686Z,4.63
2023-01-28T04:17:10.884Z,3.70
2023-01-28T04:19:38.803Z,4.10
2023-01-28T04:22:10.261Z,3.15
2023-01-28T04:24:37.449Z,4.47
2023-01-28T04:27:04.993Z,4.85
2023-01-28T04:29:31.830Z,4.28
2023-01-28T04:32:11.833Z,3.65
2023-01-28T04:34:57.378Z,4.20
2023-01-28T04:37:47.539Z,4.28
2023-01-28T04:40:33.195Z,5.07
2023-01-28T04:43:10.031Z,5.03
2023-01-28T04:45:57.150Z,4.97
2023-01-28T04:48:36.769Z,5.95
2023-01-28T04:51:22.479Z,4.50
2023-01-28T04:54:15.361Z,4.70
2023-01-28T04:56:42.362Z,4.20
2023-01-28T04:59:09.986Z,3.97
2023-01-28T05:01:38.393Z,4.22
2023-01-28T05:04:06.232Z,3.45
2023-01-28T05:06:37.244Z,4.60
2023-01-28T05:09:30.376Z,4.85
2023-01-28T05:11:57.267Z,5.13
2023-01-28T05:14:24.335Z,3.15
2023-01-28T05:17:03.076Z,3.67
2023-01-28T05:19:30.460Z,3.92
2023-01-28T05:21:59.478Z,4.75
2023-01-28T05:24:36.651Z,5.20
2023-01-28T05:27:04.285Z,5.55
2023-01-28T05:29:33.030Z,4.15
2023-01-28T05:32:00.038Z,3.95
2023-01-28T05:34:27.031Z,4.68
2023-01-28T05:36:55.598Z,4.35
2023-01-28T05:39:31.526Z,4.57
2023-01-28T05:41:58.484Z,3.58
2023-01-28T05:44:25.703Z,3.72
2023-01-28T05:47:08.351Z,4.53
2023-01-28T05:49:50.727Z,5.43
2023-01-28T05:52:44.314Z,5.63
2023-01-28T05:55:22.836Z,5.38
2023-01-28T05:57:50.202Z,4.88
2023-01-28T06:00:21.069Z,5.43
2023-01-28T06:02:47.965Z,5.03
2023-01-28T06:05:15.975Z,4.28
2023-01-28T06:07:47.680Z,5.95
2023-01-28T06:10:18.151Z,4.38
2023-01-28T06:12:45.968Z,3.47
2023-01-28T06:18:08.733Z,4.40
2023-01-28T06:20:36.228Z,3.20
2023-01-28T06:23:03.299Z,4.68
2023-01-28T06:25:30.284Z,4.80
2023-01-28T06:28:01.321Z,3.42
2023-01-28T06:30:28.212Z,3.67
2023-01-28T06:32:56.161Z,4.72
2023-01-28T06:35:23.709Z,3.83
2023-01-28T06:37:51.019Z,3.65
2023-01-28T06:40:18.350Z,4.82
2023-01-28T06:42:45.694Z,3.67
2023-01-28T06:45:12.550Z,3.53
2023-01-28T06:47:40.140Z,4.68
2023-01-28T06:50:07.675Z,3.97
2023-01-28T06:52:34.527Z,5.40
2023-01-28T06:55:01.795Z,4.28
2023-01-28T06:57:28.678Z,3.72
2023-01-28T06:59:55.603Z,4.75
2023-01-28T07:02:22.545Z,5.63
2023-01-28T07:04:49.416Z,5.93
2023-01-28T07:07:16.429Z,5.55
2023-01-28T07:09:43.833Z,5.45
2023-01-28T07:12:10.866Z,5.95
2023-01-28T07:14:37.753Z,5.60
2023-01-28T07:17:04.755Z,6.22
2023-01-28T07:19:31.985Z,5.47
2023-01-28T07:22:00.953Z,6.57
2023-01-28T07:24:27.969Z,6.35
2023-01-28T07:26:55.175Z,6.88
2023-01-28T07:29:22.378Z,6.95
2023-01-28T07:31:49.315Z,6.38
2023-01-28T07:34:16.306Z,6.22
2023-01-28T07:36:43.212Z,6.10
2023-01-28T07:39:10.067Z,6.15
2023-01-28T07:41:37.063Z,6.78
2023-01-28T07:44:07.358Z,5.72
2023-01-28T07:46:34.309Z,6.68
2023-01-28T07:49:01.454Z,6.85
2023-01-28T07:51:28.420Z,6.78
2023-01-28T07:53:55.312Z,7.18
2023-01-28T07:56:22.164Z,5.50
2023-01-28T07:58:51.980Z,7.57
2023-01-28T08:01:19.808Z,7.38
2023-01-28T08:03:46.725Z,6.63
2023-01-28T08:06:13.624Z,7.35
2023-01-28T08:08:40.542Z,8.02
2023-01-28T08:11:11.779Z,8.35
2023-01-28T08:13:38.671Z,8.60
2023-01-28T08:16:06.565Z,7.53
2023-01-28T08:18:33.701Z,7.20
2023-01-28T08:21:00.563Z,7.38
2023-01-28T08:23:27.891Z,7.50
2023-01-28T08:25:55.267Z,8.73
2023-01-28T08:28:22.395Z,7.35
2023-01-28T08:30:49.577Z,7.10
2023-01-28T08:33:17.961Z,6.68
2023-01-28T08:35:45.408Z,8.15
2023-01-28T08:38:15.397Z,8.70
2023-01-28T08:40:42.551Z,5.90
2023-01-28T08:43:09.776Z,7.32
2023-01-28T08:45:36.718Z,9.60
2023-01-28T08:48:05.696Z,6.38
2023-01-28T08:50:35.900Z,8.48
2023-01-28T08:53:10.039Z,4.57
2023-01-28T08:55:37.134Z,7.38
2023-01-28T08:58:11.144Z,6.72
2023-01-28T09:00:38.910Z,9.85
2023-01-28T09:03:06.775Z,4.90
2023-01-28T09:05:37.603Z,8.52
2023-01-28T09:08:06.979Z,6.63
2023-01-28T09:10:34.119Z,9.23
2023-01-28T09:13:08.867Z,7.65
2023-01-28T09:15:36.281Z,6.43
2023-01-28T09:18:03.669Z,7.97
2023-01-28T09:20:30.651Z,4.85
2023-01-28T09:22:58.902Z,7.47
2023-01-28T09:25:25.803Z,8.30
2023-01-28T09:27:52.794Z,7.30
2023-01-28T09:30:19.762Z,6.80
2023-01-28T09:32:50.614Z,7.57
2023-01-28T09:35:18.311Z,6.25
2023-01-28T09:37:46.355Z,9.95
2023-01-28T09:40:19.143Z,7.85
2023-01-28T09:42:48.629Z,8.75
2023-01-28T09:45:38.850Z,9.10
2023-01-28T09:48:11.135Z,7.13
2023-01-28T09:50:41.519Z,7.40
2023-01-28T09:53:30.741Z,7.57
2023-01-28T09:56:12.570Z,10.70
2023-01-28T09:58:39.642Z,9.40
2023-01-28T10:01:22.298Z,10.30
2023-01-28T10:04:07.598Z,10.88
2023-01-28T10:06:34.664Z,7.50
2023-01-28T10:09:43.181Z,9.32
2023-01-28T10:12:21.935Z,10.05
2023-01-28T10:15:17.225Z,11.45
2023-01-28T10:17:48.271Z,11.07
2023-01-28T10:20:31.148Z,7.32
2023-01-28T10:23:22.782Z,9.02
2023-01-28T10:25:49.708Z,9.65
2023-01-28T10:28:24.219Z,8.63
2023-01-28T10:30:52.014Z,10.30
2023-01-28T10:33:22.353Z,8.40
2023-01-28T10:35:49.766Z,8.65
2023-01-28T10:38:21.356Z,9.23
2023-01-28T10:40:48.349Z,9.65
2023-01-28T10:43:25.448Z,7.50
2023-01-28T10:46:21.297Z,7.30
2023-01-28T10:49:06.321Z,9.30
2023-01-28T10:51:36.580Z,10.45
2023-01-28T10:54:04.781Z,8.80
2023-01-28T10:56:35.726Z,7.03
2023-01-28T10:59:02.628Z,9.80
2023-01-28T11:01:45.544Z,10.23
2023-01-28T11:04:20.433Z,8.68
2023-01-28T11:06:59.333Z,8.90
2023-01-28T11:09:29.718Z,7.90
2023-01-28T11:11:57.786Z,8.70
2023-01-28T11:14:27.177Z,9.25
2023-01-28T11:16:58.189Z,6.97
2023-01-28T11:19:32.318Z,9.68
2023-01-28T11:21:59.691Z,10.52
2023-01-28T11:24:31.057Z,7.75
2023-01-28T11:27:01.794Z,7.85
2023-01-28T11:29:32.887Z,8.48
2023-01-28T11:32:01.080Z,9.93
2023-01-28T11:34:30.543Z,13.68
2023-01-28T11:37:12.965Z,7.70
2023-01-28T11:39:40.061Z,8.73
2023-01-28T11:42:20.984Z,9.55
2023-01-28T11:44:49.286Z,9.52
2023-01-28T11:47:19.035Z,7.28
2023-01-28T11:50:13.801Z,9.75
2023-01-28T11:53:06.835Z,10.60
2023-01-28T11:55:52.951Z,12.15
2023-01-28T11:58:19.821Z,8.70
2023-01-28T12:01:07.864Z,8.82
2023-01-28T12:03:53.072Z,8.65
2023-01-28T12:07:02.488Z,10.90
2023-01-28T12:09:52.042Z,13.18
2023-01-28T12:12:35.665Z,8.80
2023-01-28T12:15:08.523Z,11.00
2023-01-28T12:17:46.643Z,11.27
2023-01-28T12:20:42.656Z,6.90
2023-01-28T12:23:29.839Z,9.20
2023-01-28T12:26:18.182Z,6.68
2023-01-28T12:28:48.105Z,9.27
2023-01-28T12:31:33.436Z,10.93
2023-01-28T12:34:24.602Z,8.82
2023-01-28T12:37:00.905Z,9.40
2023-01-28T12:39:46.727Z,8.68
2023-01-28T12:45:45.559Z,6.85
2023-01-28T12:48:21.991Z,12.02
2023-01-28T12:50:59.019Z,10.30
2023-01-28T12:53:57.020Z,10.52
2023-01-28T12:56:42.531Z,12.15
2023-01-28T12:59:27.562Z,10.13
2023-01-28T13:02:04.652Z,9.93
2023-01-28T13:04:40.057Z,8.60
2023-01-28T13:09:39.453Z,10.50
2023-01-28T13:12:07.276Z,13.00
2023-01-28T13:14:34.929Z,12.23
2023-01-28T13:17:29.066Z,12.23
2023-01-28T13:19:57.006Z,10.65
2023-01-28T13:22:35.333Z,11.55
2023-01-28T13:25:27.280Z,13.15
2023-01-28T13:27:59.568Z,7.65
2023-01-28T13:30:30.633Z,11.55
2023-01-28T13:32:58.715Z,12.52
2023-01-28T13:35:40.958Z,11.43
2023-01-28T13:38:26.284Z,8.70
2023-01-28T13:41:01.880Z,12.30
2023-01-28T13:43:34.936Z,8.82
2023-01-28T13:46:05.466Z,12.27
2023-01-28T13:48:41.160Z,11.60
2023-01-28T13:51:24.327Z,12.57
2023-01-28T13:53:56.965Z,12.80
2023-01-28T13:56:31.295Z,11.80
2023-01-28T13:59:07.115Z,13.75
2023-01-28T14:01:58.700Z,8.95
2023-01-28T14:04:25.522Z,12.23
2023-01-28T14:07:19.458Z,8.98
2023-01-28T14:10:08.691Z,12.77
2023-01-28T14:13:09.323Z,13.68
2023-01-28T14:15:57.883Z,12.50
2023-01-28T14:18:32.847Z,11.75
2023-01-28T14:21:03.280Z,12.32
2023-01-28T14:23:32.487Z,10.27
2023-01-28T14:26:14.352Z,12.05
2023-01-28T14:28:47.527Z,8.43
2023-01-28T14:31:23.118Z,13.55
2023-01-28T14:33:50.498Z,11.23
2023-01-28T14:36:17.351Z,10.02
2023-01-28T14:38:46.662Z,12.30
2023-01-28T14:41:26.826Z,8.60
2023-01-28T14:43:56.129Z,8.25
2023-01-28T14:46:45.431Z,12.05
2023-01-28T14:49:44.002Z,13.40
2023-01-28T14:52:19.906Z,11.55
2023-01-28T14:55:09.227Z,11.77
2023-01-28T14:57:52.737Z,9.57
2023-01-28T15:00:25.764Z,9.00
2023-01-28T15:02:52.927Z,10.52
2023-01-28T15:05:24.819Z,10.05
2023-01-28T15:07:51.865Z,7.63
2023-01-28T15:10:26.988Z,9.48
2023-01-28T15:12:59.439Z,11.55
2023-01-28T15:15:31.846Z,8.38
2023-01-28T15:18:07.458Z,9.45
2023-01-28T15:20:34.886Z,10.57
2023-01-28T15:23:03.708Z,12.27
2023-01-28T15:25:30.713Z,12.57
2023-01-28T15:28:00.892Z,13.40
2023-01-28T15:30:30.840Z,11.65
2023-01-28T15:33:01.384Z,13.77
2023-01-28T15:35:29.109Z,10.50
2023-01-28T15:37:56.510Z,10.18
2023-01-28T15:40:26.040Z,10.90
2023-01-28T15:42:55.863Z,14.23
2023-01-28T15:45:26.081Z,11.30
2023-01-28T15:48:03.033Z,14.23
2023-01-28T15:50:30.273Z,12.15
2023-01-28T15:52:57.534Z,11.60
2023-01-28T15:55:45.192Z,11.23
2023-01-28T15:58:12.117Z,10.73
2023-01-28T16:00:39.661Z,12.38
2023-01-28T16:03:09.990Z,9.48
2023-01-28T16:05:40.561Z,9.88
2023-01-28T16:08:25.419Z,11.00
2023-01-28T16:10:54.292Z,9.63
2023-01-28T16:13:25.165Z,12.27
2023-01-28T16:15:54.536Z,11.88
2023-01-28T16:18:44.199Z,12.27
2023-01-28T16:21:25.381Z,13.02
2023-01-28T16:24:08.135Z,9.70
2023-01-28T16:26:36.217Z,11.45
2023-01-28T16:29:15.393Z,14.48
2023-01-28T16:31:42.586Z,9.98
2023-01-28T16:34:11.045Z,10.57
2023-01-28T16:36:37.888Z,14.27
2023-01-28T16:39:05.035Z,11.93
2023-01-28T16:41:35.813Z,12.75
2023-01-28T16:44:05.952Z,11.38
2023-01-28T16:46:33.705Z,10.63
2023-01-28T16:49:00.740Z,10.52
2023-01-28T16:51:28.063Z,11.93
2023-01-28T16:53:55.151Z,10.80
2023-01-28T16:56:44.107Z,14.45
2023-01-28T16:59:12.325Z,13.48
2023-01-28T17:01:39.693Z,12.70
2023-01-28T17:04:11.958Z,9.60
2023-01-28T17:06:43.495Z,9.20
2023-01-28T17:09:12.168Z,10.85
2023-01-28T17:11:42.346Z,8.65
2023-01-28T17:14:10.678Z,11.52
2023-01-28T17:16:38.457Z,9.23
2023-01-28T17:19:05.623Z,11.73
2023-01-28T17:21:32.569Z,9.63
2023-01-28T17:24:01.030Z,10.70
2023-01-28T17:26:29.355Z,6.50
2023-01-28T17:28:56.699Z,8.65
2023-01-28T17:31:24.225Z,7.53
2023-01-28T17:33:57.468Z,7.70
2023-01-28T17:36:25.878Z,9.80
2023-01-28T17:38:53.564Z,8.57
2023-01-28T17:41:21.220Z,9.57
2023-01-28T17:43:52.286Z,10.07
2023-01-28T17:46:20.506Z,8.88
2023-01-28T17:48:48.309Z,8.55
2023-01-28T17:51:19.144Z,9.98
2023-01-28T17:53:51.388Z,9.88
2023-01-28T17:56:26.395Z,9.73
2023-01-28T17:58:58.767Z,8.50
2023-01-28T18:01:27.108Z,5.57
2023-01-28T18:03:55.197Z,8.38
2023-01-28T18:06:22.628Z,9.75
2023-01-28T18:08:49.508Z,8.50
2023-01-28T18:11:18.454Z,9.63
2023-01-28T18:13:45.727Z,11.25
2023-01-28T18:16:16.325Z,9.88
2023-01-28T18:18:43.927Z,8.27
2023-01-28T18:21:42.854Z,13.25
2023-01-28T18:24:17.845Z,12.15
2023-01-28T18:26:44.824Z,11.25
2023-01-28T18:29:16.885Z,14.85
2023-01-28T18:31:44.165Z,14.32
2023-01-28T18:34:11.389Z,15.95
2023-01-28T18:36:38.324Z,15.20
2023-01-28T18:39:05.529Z,15.85
2023-01-28T18:41:32.455Z,15.70
2023-01-28T18:43:59.319Z,15.38
2023-01-28T18:46:26.244Z,17.15
2023-01-28T18:48:53.186Z,14.70
2023-01-28T18:51:30.134Z,16.60
2023-01-28T18:54:03.284Z,13.38
2023-01-28T18:56:31.219Z,13.70
2023-01-28T18:59:03.647Z,15.98
2023-01-28T19:01:32.056Z,13.13
2023-01-28T19:04:00.175Z,17.08
2023-01-28T19:06:29.000Z,18.63
2023-01-28T19:08:58.007Z,16.90
2023-01-28T19:11:26.813Z,16.67
2023-01-28T19:13:53.998Z,17.55
2023-01-28T19:16:21.919Z,14.43
2023-01-28T19:19:00.095Z,16.80
2023-01-28T19:21:30.911Z,12.48
2023-01-28T19:24:06.621Z,17.35
2023-01-28T19:26:33.876Z,17.02
2023-01-28T19:29:01.745Z,21.27
2023-01-28T19:31:29.231Z,13.93
2023-01-28T19:33:59.143Z,15.30
2023-01-28T19:36:28.062Z,14.85
2023-01-28T19:39:03.775Z,10.30
2023-01-28T19:41:31.155Z,12.02
2023-01-28T19:43:58.840Z,9.32
2023-01-28T19:46:26.421Z,12.77
2023-01-28T19:48:53.966Z,9.23
2023-01-28T19:51:21.654Z,10.90
2023-01-28T19:53:51.663Z,11.43
2023-01-28T19:56:21.164Z,13.35
2023-01-28T19:58:48.156Z,14.60
2023-01-28T20:01:21.563Z,13.93
2023-01-28T20:03:54.700Z,12.98
2023-01-28T20:06:23.969Z,13.50
2023-01-28T20:09:00.627Z,9.30
2023-01-28T20:11:27.571Z,14.15
2023-01-28T20:13:55.773Z,15.63
2023-01-28T20:16:25.455Z,13.75
2023-01-28T20:18:58.190Z,13.15
2023-01-28T20:21:26.478Z,13.85
2023-01-28T20:23:54.727Z,15.10
2023-01-28T20:26:25.147Z,13.05
2023-01-28T20:28:52.053Z,15.10
2023-01-28T20:31:20.581Z,16.52
2023-01-28T20:33:48.148Z,14.60
2023-01-28T20:36:15.351Z,13.48
2023-01-28T20:38:46.666Z,13.43
2023-01-28T20:41:22.981Z,16.95
2023-01-28T20:43:51.348Z,14.15
2023-01-28T20:46:22.468Z,11.80
2023-01-28T20:48:50.249Z,14.13
2023-01-28T20:51:19.668Z,14.60
2023-01-28T20:53:48.042Z,14.43
2023-01-28T20:56:17.738Z,13.73
2023-01-28T20:58:44.941Z,14.13
2023-01-28T21:01:26.961Z,16.65
2023-01-28T21:03:54.238Z,13.95
2023-01-28T21:06:21.130Z,12.82
2023-01-28T21:08:48.070Z,14.55
2023-01-28T21:11:15.005Z,14.73
2023-01-28T21:13:41.934Z,13.23
2023-01-28T21:16:08.937Z,12.98
2023-01-28T21:18:35.856Z,16.30
2023-01-28T21:21:13.683Z,14.88
2023-01-28T21:23:41.619Z,10.32
2023-01-28T21:26:08.965Z,12.80
2023-01-28T21:28:36.045Z,11.32
2023-01-28T21:31:11.478Z,12.38
2023-01-28T21:36:13.711Z,11.70
2023-01-28T21:38:41.552Z,14.10
2023-01-28T21:41:09.687Z,11.95
2023-01-28T21:43:37.312Z,11.93
2023-01-28T21:46:04.824Z,11.57
2023-01-28T21:48:31.857Z,14.10
2023-01-28T21:51:26.555Z,11.40
2023-01-28T21:53:54.313Z,10.25
2023-01-28T21:56:21.393Z,9.07
2023-01-28T21:59:07.043Z,12.57
2023-01-28T22:01:34.619Z,12.35
2023-01-28T22:04:01.583Z,13.38
2023-01-28T22:06:28.449Z,12.85
2023-01-28T22:08:55.567Z,12.70
2023-01-28T22:11:22.855Z,10.70
2023-01-28T22:13:49.734Z,9.60
2023-01-28T22:16:17.277Z,9.70
2023-01-28T22:18:44.324Z,9.38
2023-01-28T22:21:12.351Z,8.63
2023-01-28T22:23:39.616Z,11.32
2023-01-28T22:26:06.631Z,9.82
2023-01-28T22:28:33.537Z,11.60
2023-01-28T22:31:12.690Z,14.00
2023-01-28T22:33:40.686Z,10.80
2023-01-28T22:36:10.014Z,12.32
2023-01-28T22:38:39.201Z,12.68
2023-01-28T22:41:08.928Z,11.82
2023-01-28T22:43:36.140Z,9.98
2023-01-28T22:46:04.335Z,12.57
2023-01-28T22:48:31.309Z,9.88
2023-01-28T22:51:03.183Z,10.90
2023-01-28T22:53:30.782Z,12.65
2023-01-28T22:55:57.735Z,11.90
2023-01-28T22:58:24.874Z,11.13
2023-01-28T23:00:52.548Z,12.57
2023-01-28T23:03:19.593Z,10.20
2023-01-28T23:05:46.530Z,11.27
2023-01-28T23:08:13.417Z,11.95
2023-01-28T23:10:47.221Z,11.77
2023-01-28T23:13:17.360Z,10.13
2023-01-28T23:16:04.056Z,9.23
2023-01-28T23:19:09.867Z,10.98
2023-01-28T23:21:55.659Z,9.68
2023-01-28T23:24:22.695Z,9.85
2023-01-28T23:26:54.761Z,8.73
2023-01-28T23:29:26.643Z,11.15
2023-01-28T23:31:56.459Z,11.05
2023-01-28T23:34:23.656Z,9.13
2023-01-28T23:36:50.728Z,9.07
2023-01-28T23:39:17.628Z,7.25
2023-01-28T23:41:44.493Z,10.63
2023-01-28T23:44:11.437Z,9.13
2023-01-28T23:46:40.143Z,11.85
2023-01-28T23:49:09.789Z,8.88
2023-01-28T23:51:36.705Z,9.88
2023-01-28T23:54:03.541Z,11.05
2023-01-28T23:56:30.507Z,9.02
2023-01-28T23:58:57.355Z,8.60
